Time;durP1;ratioP1;P1;durP2;ratioP2;P2;SDS_P1;SDS_P2;PMS_P1;PMS_P2;Temp;Humidity;BMP_temperature;BMP_pressure;BME280_temperature;BME280_humidity;BME280_pressure;Samples;Min_cycle;Max_cycle;Signal;HPM_P1;HPM_P2
2022/11/12 00:00:02;;;;;;;18.77;12.82;;;;;;;;;;5004038;28;20208;-77
2022/11/12 00:02:28;;;;;;;18.80;12.50;;;;;;;;;;4998986;28;20072;-77
2022/11/12 00:04:55;;;;;;;18.98;11.98;;;;;;;;;;4999714;28;20041;-78
2022/11/12 00:07:21;;;;;;;18.92;12.88;;;;;;;;;;4999351;28;20037;-78
2022/11/12 00:09:47;;;;;;;19.92;12.43;;;;;;;;;;5002138;28;20037;-78
2022/11/12 00:12:13;;;;;;;17.65;11.52;;;;;;;;;;5044940;28;20066;-78
2022/11/12 00:14:39;;;;;;;18.52;12.05;;;;;;;;;;5029735;28;20467;-78
2022/11/12 00:17:05;;;;;;;18.05;11.68;;;;;;;;;;5035678;28;20768;-78
2022/11/12 00:19:31;;;;;;;19.90;12.52;;;;;;;;;;5060097;28;20096;-78
2022/11/12 00:21:57;;;;;;;17.67;11.98;;;;;;;;;;5028099;28;20049;-78
2022/11/12 00:24:23;;;;;;;19.58;11.75;;;;;;;;;;5013075;28;20055;-78
2022/11/12 00:26:49;;;;;;;19.00;12.45;;;;;;;;;;4975556;28;20127;-79
2022/11/12 00:29:15;;;;;;;17.42;11.88;;;;;;;;;;5025346;28;20052;-79
2022/11/12 00:31:41;;;;;;;19.73;11.90;;;;;;;;;;5007909;28;20044;-78
2022/11/12 00:34:07;;;;;;;18.77;12.27;;;;;;;;;;5000773;28;20040;-78
2022/11/12 00:36:33;;;;;;;18.42;11.40;;;;;;;;;;5027040;28;20045;-78
2022/11/12 00:38:59;;;;;;;16.08;11.68;;;;;;;;;;5015080;28;20037;-78
2022/11/12 00:41:25;;;;;;;18.25;11.60;;;;;;;;;;5017971;28;20061;-78
2022/11/12 00:43:51;;;;;;;18.40;12.10;;;;;;;;;;5044345;28;20048;-78
2022/11/12 00:46:17;;;;;;;18.92;12.65;;;;;;;;;;5036380;28;20037;-78
2022/11/12 00:48:43;;;;;;;17.88;12.07;;;;;;;;;;4994851;28;20059;-79
2022/11/12 00:51:10;;;;;;;25.67;12.98;;;;;;;;;;5005433;28;20052;-78
2022/11/12 00:53:36;;;;;;;16.30;11.55;;;;;;;;;;5013424;28;20130;-78
2022/11/12 00:56:03;;;;;;;17.60;11.35;;;;;;;;;;5028906;28;20037;-78
2022/11/12 00:58:30;;;;;;;20.17;12.25;;;;;;;;;;5017040;28;20044;-78
2022/11/12 01:00:56;;;;;;;17.17;12.13;;;;;;;;;;5017474;28;20045;-77
2022/11/12 01:03:22;;;;;;;16.42;12.05;;;;;;;;;;5015860;28;20079;-77
2022/11/12 01:05:48;;;;;;;19.23;12.57;;;;;;;;;;4992539;28;20175;-77
2022/11/12 01:08:14;;;;;;;20.15;12.25;;;;;;;;;;4998483;28;20045;-78
2022/11/12 01:10:40;;;;;;;19.67;11.98;;;;;;;;;;5012888;28;20123;-78
2022/11/12 01:13:06;;;;;;;19.95;12.25;;;;;;;;;;5018913;28;20448;-78
2022/11/12 01:15:32;;;;;;;16.10;12.25;;;;;;;;;;5015906;28;20037;-78
2022/11/12 01:17:59;;;;;;;18.80;12.07;;;;;;;;;;5035480;28;20043;-78
2022/11/12 01:20:25;;;;;;;16.75;11.65;;;;;;;;;;5016880;28;20041;-78
2022/11/12 01:22:51;;;;;;;17.75;12.32;;;;;;;;;;5019948;28;20045;-79
2022/11/12 01:25:17;;;;;;;18.40;13.07;;;;;;;;;;5017519;28;20041;-78
2022/11/12 01:27:43;;;;;;;18.30;12.25;;;;;;;;;;5019227;28;20041;-78
2022/11/12 01:30:09;;;;;;;18.50;12.48;;;;;;;;;;4983203;28;20037;-79
2022/11/12 01:32:36;;;;;;;14.50;11.88;;;;;;;;;;4993666;28;20146;-79
2022/11/12 01:35:02;;;;;;;16.95;12.32;;;;;;;;;;5020084;28;20053;-78
2022/11/12 01:37:28;;;;;;;20.63;13.85;;;;;;;;;;5015107;28;20060;-78
2022/11/12 01:39:55;;;;;;;17.77;13.52;;;;;;;;;;5002876;28;20559;-78
2022/11/12 01:42:23;;;;;;;18.77;13.25;;;;;;;;;;5036223;28;20048;-78
2022/11/12 01:44:52;;;;;;;21.17;12.63;;;;;;;;;;5036152;28;20044;-78
2022/11/12 01:47:27;;;;;;;22.42;13.35;;;;;;;;;;5020948;28;22042;-79
2022/11/12 01:49:57;;;;;;;19.83;12.93;;;;;;;;;;5040276;28;20179;-79
2022/11/12 01:52:23;;;;;;;21.48;14.30;;;;;;;;;;5009100;28;20499;-79
2022/11/12 01:54:51;;;;;;;18.48;13.45;;;;;;;;;;5044397;28;20044;-78
2022/11/12 01:57:24;;;;;;;18.13;13.05;;;;;;;;;;5038779;28;20074;-78
2022/11/12 01:59:52;;;;;;;23.13;14.88;;;;;;;;;;5039845;28;20035;-78
2022/11/12 02:02:18;;;;;;;19.75;12.75;;;;;;;;;;5064972;28;20044;-76
2022/11/12 02:04:45;;;;;;;20.88;12.90;;;;;;;;;;5020966;28;20059;-79
2022/11/12 02:07:12;;;;;;;22.10;14.40;;;;;;;;;;5016658;28;20053;-79
2022/11/12 02:09:38;;;;;;;24.40;14.13;;;;;;;;;;5028164;28;20061;-78
2022/11/12 02:12:05;;;;;;;20.90;14.15;;;;;;;;;;5023664;28;20111;-78
2022/11/12 02:14:31;;;;;;;23.58;13.90;;;;;;;;;;5028749;28;20041;-78
2022/11/12 02:16:58;;;;;;;20.15;13.80;;;;;;;;;;5022518;28;20041;-78
2022/11/12 02:19:25;;;;;;;20.58;13.95;;;;;;;;;;5022965;28;20045;-79
2022/11/12 02:21:51;;;;;;;20.80;14.30;;;;;;;;;;5030085;28;20045;-78
2022/11/12 02:24:17;;;;;;;22.08;14.32;;;;;;;;;;5029916;28;20383;-78
2022/11/12 02:26:48;;;;;;;20.58;14.80;;;;;;;;;;5036414;28;20045;-78
2022/11/12 02:29:14;;;;;;;22.30;14.77;;;;;;;;;;5064480;28;20112;-79
2022/11/12 02:31:40;;;;;;;23.80;14.70;;;;;;;;;;5043955;28;20358;-78
2022/11/12 02:34:06;;;;;;;20.85;14.45;;;;;;;;;;5020788;28;20071;-78
2022/11/12 02:36:32;;;;;;;24.27;14.27;;;;;;;;;;5025350;28;20045;-78
2022/11/12 02:38:58;;;;;;;20.73;14.70;;;;;;;;;;5026213;28;20037;-78
2022/11/12 02:41:25;;;;;;;23.02;14.88;;;;;;;;;;5025203;28;20131;-78
2022/11/12 02:43:51;;;;;;;22.67;16.00;;;;;;;;;;5024498;28;20397;-78
2022/11/12 02:46:17;;;;;;;23.13;16.08;;;;;;;;;;5007376;28;20029;-77
2022/11/12 02:48:43;;;;;;;33.70;15.70;;;;;;;;;;4983339;28;20029;-77
2022/11/12 02:51:10;;;;;;;23.80;15.70;;;;;;;;;;5019310;28;20167;-77
2022/11/12 02:53:36;;;;;;;24.23;15.18;;;;;;;;;;5023380;28;20491;-77
2022/11/12 02:56:02;;;;;;;24.42;16.88;;;;;;;;;;5004252;28;20045;-77
2022/11/12 02:58:29;;;;;;;23.73;16.63;;;;;;;;;;5019100;28;20797;-78
2022/11/12 03:00:55;;;;;;;23.85;16.90;;;;;;;;;;5021392;28;20044;-78
2022/11/12 03:03:21;;;;;;;24.65;15.93;;;;;;;;;;5023206;28;20052;-77
2022/11/12 03:05:55;;;;;;;24.52;16.33;;;;;;;;;;5036954;28;20130;-77
2022/11/12 03:08:21;;;;;;;23.38;16.52;;;;;;;;;;5019982;28;20044;-77
2022/11/12 03:10:48;;;;;;;25.85;16.98;;;;;;;;;;5038022;28;20056;-78
2022/11/12 03:13:14;;;;;;;25.60;16.73;;;;;;;;;;5018433;28;20059;-77
2022/11/12 03:15:40;;;;;;;28.60;17.75;;;;;;;;;;5005535;28;20063;-78
2022/11/12 03:18:06;;;;;;;22.67;16.90;;;;;;;;;;5019201;28;20052;-77
2022/11/12 03:20:37;;;;;;;23.85;17.25;;;;;;;;;;5022776;28;20037;-77
2022/11/12 03:23:05;;;;;;;25.55;17.83;;;;;;;;;;4982769;28;20045;-77
2022/11/12 03:25:31;;;;;;;27.63;18.00;;;;;;;;;;5043158;28;20882;-77
2022/11/12 03:28:01;;;;;;;24.90;16.80;;;;;;;;;;5027320;28;20029;-77
2022/11/12 03:30:28;;;;;;;26.13;17.73;;;;;;;;;;5044923;28;20083;-78
2022/11/12 03:32:54;;;;;;;25.40;18.10;;;;;;;;;;5028412;28;20040;-77
2022/11/12 03:35:20;;;;;;;28.33;17.48;;;;;;;;;;5014602;28;20105;-77
2022/11/12 03:37:47;;;;;;;26.95;19.08;;;;;;;;;;5034024;28;20048;-78
2022/11/12 03:40:13;;;;;;;27.40;17.63;;;;;;;;;;5038686;28;20036;-77
2022/11/12 03:42:44;;;;;;;24.15;16.85;;;;;;;;;;5039593;28;20062;-77
2022/11/12 03:45:10;;;;;;;26.13;18.17;;;;;;;;;;5039120;28;20051;-77
2022/11/12 03:47:36;;;;;;;26.92;18.55;;;;;;;;;;5035417;28;20075;-77
2022/11/12 03:50:02;;;;;;;29.30;19.42;;;;;;;;;;5001362;28;20045;-77
2022/11/12 03:52:28;;;;;;;25.63;18.92;;;;;;;;;;5010644;28;20051;-78
2022/11/12 03:54:54;;;;;;;33.53;18.92;;;;;;;;;;5019092;28;20053;-78
2022/11/12 03:57:20;;;;;;;27.85;18.27;;;;;;;;;;5018996;28;20055;-77
2022/11/12 03:59:46;;;;;;;29.48;19.90;;;;;;;;;;5020639;28;20081;-78
2022/11/12 04:02:13;;;;;;;30.75;19.38;;;;;;;;;;5007403;28;20139;-78
2022/11/12 04:10:08;;;;;;;28.70;19.95;;;;;;;;;;5039211;28;20044;-77
2022/11/12 04:15:19;;;;;;;;;;;;;;;;;;5032983;28;20055;-77
2022/11/12 04:23:31;;;;;;;34.13;21.63;;;;;;;;;;4938868;28;20055;-77
2022/11/12 04:30:14;;;;;;;30.08;20.92;;;;;;;;;;5031187;28;20077;-77
2022/11/12 04:31:28;;;;;;;38.80;23.33;;;;;;;;;;5012973;28;20050;-77
2022/11/12 04:33:54;;;;;;;35.97;22.38;;;;;;;;;;4995571;28;20052;-78
2022/11/12 04:36:20;;;;;;;37.88;22.88;;;;;;;;;;5023668;28;20055;-71
2022/11/12 04:38:46;;;;;;;30.85;22.00;;;;;;;;;;4988698;28;20068;-71
2022/11/12 04:46:42;;;;;;;35.85;23.95;;;;;;;;;;4992988;28;20049;-71
2022/11/12 04:49:08;;;;;;;38.45;24.40;;;;;;;;;;4983752;28;20052;-71
2022/11/12 04:54:18;;;;;;;39.45;24.15;;;;;;;;;;5009230;28;20505;-71
2022/11/12 04:56:44;;;;;;;36.17;23.85;;;;;;;;;;5007496;28;20048;-72
2022/11/12 04:59:11;;;;;;;37.55;24.42;;;;;;;;;;5011498;28;20052;-71
2022/11/12 05:01:37;;;;;;;40.28;24.70;;;;;;;;;;5029171;28;20055;-71
2022/11/12 05:04:03;;;;;;;41.33;24.83;;;;;;;;;;5012306;28;20948;-71
2022/11/12 05:09:13;;;;;;;33.13;22.25;;;;;;;;;;4988203;28;20493;-71
2022/11/12 05:11:39;;;;;;;31.58;21.95;;;;;;;;;;4989224;28;20094;-71
2022/11/12 05:14:06;;;;;;;32.35;21.25;;;;;;;;;;5007335;28;20060;-71
2022/11/12 05:16:32;;;;;;;31.48;21.70;;;;;;;;;;5017483;28;21171;-70
2022/11/12 05:18:58;;;;;;;39.28;25.10;;;;;;;;;;5021651;28;20426;-70
2022/11/12 05:24:08;;;;;;;;;;;;;;;;;;5021208;28;20071;-70
2022/11/12 05:26:34;;;;;;;38.50;24.27;;;;;;;;;;5019591;28;20011;-72
2022/11/12 05:29:00;;;;;;;34.30;23.52;;;;;;;;;;5017273;28;20055;-72
2022/11/12 05:31:26;;;;;;;34.33;23.35;;;;;;;;;;5007218;28;20052;-73
2022/11/12 05:33:52;;;;;;;43.65;25.20;;;;;;;;;;4995702;28;21561;-72
2022/11/12 05:36:19;;;;;;;38.13;23.13;;;;;;;;;;5010656;28;20064;-72
2022/11/12 05:38:45;;;;;;;34.95;22.38;;;;;;;;;;4975494;28;20544;-70
2022/11/12 05:41:11;;;;;;;34.38;22.00;;;;;;;;;;4973144;28;20378;-71
2022/11/12 05:43:37;;;;;;;35.85;23.15;;;;;;;;;;4988078;28;20040;-71
2022/11/12 05:46:03;;;;;;;36.13;23.45;;;;;;;;;;4992738;28;20049;-72
2022/11/12 05:48:29;;;;;;;41.70;26.00;;;;;;;;;;5009442;28;20042;-72
2022/11/12 05:50:55;;;;;;;42.22;24.40;;;;;;;;;;4997357;28;20135;-72
2022/11/12 05:53:22;;;;;;;38.17;24.55;;;;;;;;;;5007375;28;20052;-72
2022/11/12 05:55:48;;;;;;;40.90;26.05;;;;;;;;;;5030242;28;20060;-71
2022/11/12 05:58:14;;;;;;;37.53;26.40;;;;;;;;;;5004403;28;20133;-73
2022/11/12 06:00:40;;;;;;;43.85;26.60;;;;;;;;;;4996352;28;21284;-72
2022/11/12 06:03:06;;;;;;;38.92;25.38;;;;;;;;;;4993280;28;20053;-72
2022/11/12 06:05:33;;;;;;;41.00;26.60;;;;;;;;;;4991829;28;20944;-72
2022/11/12 06:07:59;;;;;;;35.95;26.05;;;;;;;;;;4988170;28;20045;-72
2022/11/12 06:10:25;;;;;;;44.38;27.08;;;;;;;;;;4989066;28;20144;-71
2022/11/12 06:12:51;;;;;;;44.15;28.10;;;;;;;;;;5004258;28;20041;-72
2022/11/12 06:15:18;;;;;;;37.10;26.75;;;;;;;;;;4990454;28;20037;-72
2022/11/12 06:17:44;;;;;;;41.90;26.85;;;;;;;;;;4989917;28;20126;-72
2022/11/12 06:20:10;;;;;;;36.08;23.98;;;;;;;;;;4973655;28;21031;-72
2022/11/12 06:22:36;;;;;;;49.22;26.75;;;;;;;;;;5004933;28;20497;-72
2022/11/12 06:25:03;;;;;;;42.20;26.65;;;;;;;;;;4981743;28;20052;-72
2022/11/12 06:27:29;;;;;;;41.92;28.35;;;;;;;;;;4992516;28;20828;-72
2022/11/12 06:29:55;;;;;;;48.63;28.02;;;;;;;;;;4989276;28;20049;-72
2022/11/12 06:32:21;;;;;;;41.17;27.65;;;;;;;;;;5004195;28;20087;-72
2022/11/12 06:34:47;;;;;;;40.42;26.45;;;;;;;;;;4990595;28;20057;-71
2022/11/12 06:37:13;;;;;;;46.35;27.83;;;;;;;;;;4992077;28;20529;-71
2022/11/12 06:39:39;;;;;;;52.58;29.65;;;;;;;;;;4976905;28;21266;-70
2022/11/12 06:42:05;;;;;;;44.13;28.15;;;;;;;;;;4987934;28;20045;-71
2022/11/12 06:44:31;;;;;;;47.88;29.15;;;;;;;;;;4992059;28;20049;-70
2022/11/12 06:46:57;;;;;;;42.85;26.13;;;;;;;;;;4994555;28;20045;-71
2022/11/12 06:49:23;;;;;;;41.83;26.27;;;;;;;;;;4994188;28;20045;-71
2022/11/12 06:51:50;;;;;;;44.72;28.08;;;;;;;;;;4983047;28;20168;-70
2022/11/12 06:54:16;;;;;;;65.13;28.10;;;;;;;;;;4993844;28;20053;-70
2022/11/12 06:56:42;;;;;;;47.75;27.58;;;;;;;;;;5004931;28;20048;-71
2022/11/12 06:59:08;;;;;;;37.50;26.33;;;;;;;;;;5014894;28;20611;-72
2022/11/12 07:01:34;;;;;;;47.20;25.70;;;;;;;;;;5029449;28;20052;-71
2022/11/12 07:04:00;;;;;;;44.13;26.20;;;;;;;;;;5024736;28;20142;-71
2022/11/12 07:06:26;;;;;;;56.28;25.35;;;;;;;;;;4995550;28;20033;-71
2022/11/12 07:08:52;;;;;;;91.88;25.83;;;;;;;;;;5004043;28;20041;-71
2022/11/12 07:11:19;;;;;;;62.67;25.40;;;;;;;;;;4968621;28;20048;-71
2022/11/12 07:13:46;;;;;;;36.42;24.55;;;;;;;;;;4993886;28;20084;-71
2022/11/12 07:16:17;;;;;;;37.10;24.58;;;;;;;;;;4993788;28;20076;-71
2022/11/12 07:18:43;;;;;;;40.72;24.05;;;;;;;;;;4993919;28;20045;-72
2022/11/12 07:21:11;;;;;;;48.90;24.70;;;;;;;;;;5014681;28;20037;-70
2022/11/12 07:23:37;;;;;;;40.45;24.50;;;;;;;;;;4972054;28;21159;-70
2022/11/12 07:26:04;;;;;;;152.05;29.05;;;;;;;;;;5021726;28;20115;-70
2022/11/12 07:28:31;;;;;;;68.75;28.52;;;;;;;;;;5006214;28;20793;-71
2022/11/12 07:30:58;;;;;;;94.82;25.92;;;;;;;;;;5024292;28;20142;-70
2022/11/12 07:33:24;;;;;;;50.70;23.45;;;;;;;;;;5015773;28;20076;-71
2022/11/12 07:35:56;;;;;;;44.25;22.80;;;;;;;;;;5031953;28;20052;-71
2022/11/12 07:38:22;;;;;;;152.45;26.98;;;;;;;;;;5039458;28;20045;-72
2022/11/12 07:40:48;;;;;;;206.90;25.25;;;;;;;;;;5013953;28;20043;-72
2022/11/12 07:43:14;;;;;;;88.13;22.75;;;;;;;;;;5012121;28;20090;-72
2022/11/12 07:45:40;;;;;;;175.45;26.05;;;;;;;;;;5014183;28;20076;-72
2022/11/12 07:48:07;;;;;;;75.40;19.30;;;;;;;;;;5011484;28;20052;-72
2022/11/12 07:50:33;;;;;;;41.05;19.85;;;;;;;;;;5010938;28;20558;-72
2022/11/12 07:52:59;;;;;;;32.50;20.00;;;;;;;;;;4972177;28;20847;-72
2022/11/12 07:55:25;;;;;;;29.48;20.73;;;;;;;;;;5009845;28;20059;-73
2022/11/12 07:57:52;;;;;;;26.58;19.33;;;;;;;;;;4975071;28;20236;-72
2022/11/12 08:00:18;;;;;;;29.67;19.08;;;;;;;;;;5006517;28;20036;-72
2022/11/12 08:02:44;;;;;;;29.75;19.23;;;;;;;;;;5026653;28;20398;-72
2022/11/12 08:05:10;;;;;;;28.92;18.38;;;;;;;;;;5001100;28;20176;-71
2022/11/12 08:07:36;;;;;;;32.72;19.25;;;;;;;;;;4986809;28;20051;-72
2022/11/12 08:10:02;;;;;;;37.30;22.88;;;;;;;;;;5000276;28;21582;-71
2022/11/12 08:12:28;;;;;;;31.85;21.48;;;;;;;;;;5001940;28;20218;-72
2022/11/12 08:14:54;;;;;;;34.22;22.77;;;;;;;;;;5013921;28;20127;-72
2022/11/12 08:17:20;;;;;;;39.53;22.58;;;;;;;;;;5001765;28;20068;-72
2022/11/12 08:19:47;;;;;;;58.22;26.13;;;;;;;;;;5003566;28;20134;-73
2022/11/12 08:22:14;;;;;;;51.72;24.50;;;;;;;;;;5009145;28;20041;-73
2022/11/12 08:24:40;;;;;;;65.13;27.27;;;;;;;;;;4998802;28;20110;-70
2022/11/12 08:27:06;;;;;;;116.25;32.47;;;;;;;;;;4996204;28;20045;-71
2022/11/12 08:29:32;;;;;;;163.70;39.50;;;;;;;;;;5002645;28;20077;-71
2022/11/12 08:31:58;;;;;;;180.27;35.72;;;;;;;;;;5026682;28;20049;-71
2022/11/12 08:34:24;;;;;;;151.77;37.40;;;;;;;;;;5021345;28;20140;-71
2022/11/12 08:36:50;;;;;;;108.72;36.72;;;;;;;;;;5021835;28;20075;-71
2022/11/12 08:39:16;;;;;;;212.48;40.38;;;;;;;;;;5011096;28;20053;-71
2022/11/12 08:41:42;;;;;;;125.10;35.28;;;;;;;;;;5005874;28;20645;-71
2022/11/12 08:44:09;;;;;;;214.23;42.08;;;;;;;;;;4992565;28;20048;-71
2022/11/12 08:46:35;;;;;;;120.80;36.65;;;;;;;;;;5006571;28;20850;-71
2022/11/12 08:49:01;;;;;;;108.88;36.78;;;;;;;;;;5003508;28;20049;-72
2022/11/12 08:51:27;;;;;;;209.48;44.63;;;;;;;;;;4981572;28;21861;-72
2022/11/12 08:53:53;;;;;;;149.98;38.72;;;;;;;;;;4963951;28;20106;-72
2022/11/12 08:56:19;;;;;;;285.45;43.45;;;;;;;;;;4978484;28;20033;-71
2022/11/12 08:58:45;;;;;;;174.85;37.80;;;;;;;;;;5002451;28;20042;-73
2022/11/12 09:01:11;;;;;;;117.45;32.55;;;;;;;;;;4985045;28;20401;-72
2022/11/12 09:03:38;;;;;;;175.10;37.65;;;;;;;;;;4976616;28;20564;-73
2022/11/12 09:06:04;;;;;;;183.75;37.60;;;;;;;;;;5002803;28;20524;-72
2022/11/12 09:08:33;;;;;;;169.15;38.50;;;;;;;;;;5011656;28;20045;-72
2022/11/12 09:10:59;;;;;;;144.75;33.78;;;;;;;;;;5029890;28;20217;-71
2022/11/12 09:13:25;;;;;;;153.43;39.13;;;;;;;;;;5032382;28;20480;-72
2022/11/12 09:15:51;;;;;;;269.05;45.13;;;;;;;;;;5010127;28;20560;-73
2022/11/12 09:18:17;;;;;;;132.65;34.08;;;;;;;;;;4982491;28;20392;-74
2022/11/12 09:20:44;;;;;;;189.93;38.45;;;;;;;;;;5002594;28;20041;-71
2022/11/12 09:23:14;;;;;;;183.52;37.90;;;;;;;;;;5001410;28;20154;-72
2022/11/12 09:25:41;;;;;;;201.27;37.80;;;;;;;;;;4992670;28;21017;-73
2022/11/12 09:28:08;;;;;;;329.05;41.05;;;;;;;;;;4991229;28;20041;-73
2022/11/12 09:30:34;;;;;;;173.60;36.53;;;;;;;;;;5016876;28;20548;-73
2022/11/12 09:33:00;;;;;;;241.77;39.13;;;;;;;;;;5020037;28;20053;-73
2022/11/12 09:35:26;;;;;;;357.83;47.75;;;;;;;;;;5014398;28;20061;-72
2022/11/12 09:37:53;;;;;;;245.02;36.65;;;;;;;;;;5010585;28;20095;-73
2022/11/12 09:40:19;;;;;;;185.63;35.10;;;;;;;;;;5014587;28;20492;-73
2022/11/12 09:42:52;;;;;;;254.63;39.33;;;;;;;;;;5017616;28;20053;-73
2022/11/12 09:45:21;;;;;;;187.23;36.50;;;;;;;;;;5014648;28;20494;-73
2022/11/12 09:47:52;;;;;;;259.73;36.35;;;;;;;;;;5015213;28;20041;-73
2022/11/12 09:50:21;;;;;;;223.35;39.33;;;;;;;;;;5001141;28;20516;-73
2022/11/12 09:52:49;;;;;;;201.98;35.38;;;;;;;;;;5001898;28;20071;-71
2022/11/12 09:55:30;;;;;;;246.57;38.58;;;;;;;;;;5011167;28;20286;-72
2022/11/12 09:57:57;;;;;;;362.08;43.05;;;;;;;;;;5023749;28;20128;-73
2022/11/12 10:00:23;;;;;;;236.57;37.03;;;;;;;;;;5021332;28;21321;-73
2022/11/12 10:02:57;;;;;;;248.43;39.22;;;;;;;;;;5002533;28;20050;-72
2022/11/12 10:05:34;;;;;;;296.17;41.20;;;;;;;;;;4998892;28;20149;-73
2022/11/12 10:08:10;;;;;;;204.27;38.65;;;;;;;;;;5019109;28;20507;-72
2022/11/12 10:11:00;;;;;;;225.85;37.47;;;;;;;;;;5020604;28;20153;-72
2022/11/12 10:13:29;;;;;;;323.17;45.08;;;;;;;;;;4987088;28;20053;-72
2022/11/12 10:18:43;;;;;;;224.95;40.20;;;;;;;;;;5016748;28;20048;-72
2022/11/12 10:21:25;;;;;;;220.35;39.88;;;;;;;;;;5013807;28;20167;-72
2022/11/12 10:23:52;;;;;;;320.38;46.35;;;;;;;;;;5020209;28;20442;-72
2022/11/12 10:26:20;;;;;;;292.27;44.17;;;;;;;;;;5019539;28;20063;-72
2022/11/12 10:28:46;;;;;;;284.23;45.97;;;;;;;;;;4992417;28;20485;-72
2022/11/12 10:31:19;;;;;;;340.85;50.83;;;;;;;;;;5018121;28;20058;-72
2022/11/12 10:33:45;;;;;;;347.45;50.10;;;;;;;;;;5016521;28;20041;-72
2022/11/12 10:36:17;;;;;;;330.70;50.03;;;;;;;;;;5014443;28;20084;-71
2022/11/12 10:38:45;;;;;;;354.88;50.85;;;;;;;;;;4990944;28;20647;-72
2022/11/12 10:41:22;;;;;;;261.80;44.60;;;;;;;;;;5019535;28;20056;-72
2022/11/12 10:43:59;;;;;;;248.00;44.75;;;;;;;;;;5017868;28;20516;-73
2022/11/12 10:46:26;;;;;;;362.02;50.22;;;;;;;;;;5022583;28;20080;-73
2022/11/12 10:49:03;;;;;;;265.83;48.53;;;;;;;;;;5031718;28;20045;-73
2022/11/12 10:51:33;;;;;;;362.48;52.17;;;;;;;;;;5047657;28;20061;-73
2022/11/12 10:54:18;;;;;;;251.88;43.42;;;;;;;;;;5016221;28;20053;-73
2022/11/12 10:56:44;;;;;;;246.95;42.30;;;;;;;;;;5016701;28;20040;-73
2022/11/12 10:59:15;;;;;;;258.88;46.28;;;;;;;;;;5018247;28;20060;-73
2022/11/12 11:01:42;;;;;;;195.80;42.90;;;;;;;;;;5016881;28;20497;-73
2022/11/12 11:04:16;;;;;;;318.42;49.00;;;;;;;;;;5017910;28;20576;-73
2022/11/12 11:06:42;;;;;;;240.57;43.38;;;;;;;;;;5015288;28;20481;-73
2022/11/12 11:09:11;;;;;;;211.27;46.00;;;;;;;;;;5017131;28;20037;-73
2022/11/12 11:11:37;;;;;;;176.88;44.20;;;;;;;;;;5002411;28;20592;-73
2022/11/12 11:14:33;;;;;;;155.52;42.33;;;;;;;;;;5018407;28;20068;-73
2022/11/12 11:17:07;;;;;;;209.55;47.33;;;;;;;;;;5004573;28;20409;-73
2022/11/12 11:19:37;;;;;;;293.27;47.47;;;;;;;;;;5016421;28;20057;-73
2022/11/12 11:22:24;;;;;;;303.13;51.00;;;;;;;;;;5011776;28;20234;-73
2022/11/12 11:25:15;;;;;;;218.63;47.42;;;;;;;;;;4976738;28;20493;-73
2022/11/12 11:27:58;;;;;;;182.98;44.28;;;;;;;;;;5001884;28;20500;-73
2022/11/12 11:30:24;;;;;;;281.67;48.50;;;;;;;;;;5019084;28;20045;-73
2022/11/12 11:33:17;;;;;;;367.55;51.65;;;;;;;;;;5016481;28;20194;-73
2022/11/12 11:35:43;;;;;;;244.07;49.58;;;;;;;;;;5014224;28;20056;-73
2022/11/12 11:38:29;;;;;;;290.80;45.08;;;;;;;;;;4999124;28;20718;-73
2022/11/12 11:41:01;;;;;;;228.55;42.78;;;;;;;;;;5016370;28;20136;-73
2022/11/12 11:43:42;;;;;;;306.80;48.90;;;;;;;;;;5015873;28;20045;-72
2022/11/12 11:46:08;;;;;;;257.45;45.50;;;;;;;;;;5015293;28;20038;-72
2022/11/12 11:48:37;;;;;;;189.02;42.03;;;;;;;;;;5027583;28;20045;-72
2022/11/12 11:51:22;;;;;;;152.48;43.85;;;;;;;;;;5008267;28;20880;-72
2022/11/12 11:53:51;;;;;;;182.93;45.25;;;;;;;;;;5017001;28;20063;-72
2022/11/12 11:56:22;;;;;;;208.32;43.70;;;;;;;;;;5021899;28;20492;-72
2022/11/12 11:58:56;;;;;;;162.02;42.58;;;;;;;;;;5015457;28;20135;-72
2022/11/12 12:01:40;;;;;;;192.27;43.03;;;;;;;;;;4996804;28;20077;-72
2022/11/12 12:04:25;;;;;;;185.50;47.08;;;;;;;;;;4989203;28;20342;-72
2022/11/12 12:06:54;;;;;;;198.05;44.70;;;;;;;;;;5014876;28;20049;-72
2022/11/12 12:09:47;;;;;;;173.30;43.75;;;;;;;;;;5019545;28;20077;-72
2022/11/12 12:12:21;;;;;;;193.57;48.78;;;;;;;;;;5010202;28;20063;-72
2022/11/12 12:15:05;;;;;;;158.05;44.97;;;;;;;;;;5013159;28;20144;-72
2022/11/12 12:17:31;;;;;;;;;;;;;;;;;;5011479;28;20674;-71
2022/11/12 12:20:16;;;;;;;118.43;46.03;;;;;;;;;;5022117;28;19925;-72
2022/11/12 12:22:49;;;;;;;151.63;48.20;;;;;;;;;;5015800;28;20049;-72
2022/11/12 12:25:17;;;;;;;119.47;46.80;;;;;;;;;;4992853;28;20100;-72
2022/11/12 12:27:49;;;;;;;125.07;47.78;;;;;;;;;;5039265;28;20049;-72
2022/11/12 12:30:24;;;;;;;153.07;50.15;;;;;;;;;;5029959;28;20053;-72
2022/11/12 12:33:02;;;;;;;108.38;45.90;;;;;;;;;;5020631;28;20048;-72
2022/11/12 12:35:31;;;;;;;105.30;45.28;;;;;;;;;;5019842;28;20468;-72
2022/11/12 12:38:17;;;;;;;127.85;46.85;;;;;;;;;;5014776;28;20399;-72
2022/11/12 12:41:02;;;;;;;116.88;49.17;;;;;;;;;;5014977;28;20045;-72
2022/11/12 12:43:34;;;;;;;148.13;51.03;;;;;;;;;;5016330;28;20057;-72
2022/11/12 12:46:01;;;;;;;137.60;49.63;;;;;;;;;;5002315;28;20139;-72
2022/11/12 12:48:32;;;;;;;153.57;52.38;;;;;;;;;;4997491;28;20164;-72
2022/11/12 12:50:58;;;;;;;119.05;50.40;;;;;;;;;;5014788;28;20152;-72
2022/11/12 12:53:24;;;;;;;89.85;45.00;;;;;;;;;;4999084;28;20069;-72
2022/11/12 12:55:52;;;;;;;81.03;43.60;;;;;;;;;;4999300;28;21008;-72
2022/11/12 12:58:29;;;;;;;90.38;44.50;;;;;;;;;;5019226;28;20034;-72
2022/11/12 13:01:00;;;;;;;122.47;48.55;;;;;;;;;;5006841;28;20045;-71
2022/11/12 13:03:45;;;;;;;112.45;47.83;;;;;;;;;;4991404;28;20046;-72
2022/11/12 13:06:23;;;;;;;82.63;44.75;;;;;;;;;;5007707;28;20042;-70
2022/11/12 13:09:08;;;;;;;75.53;43.25;;;;;;;;;;5018065;28;20041;-70
2022/11/12 13:14:31;;;;;;;81.25;42.58;;;;;;;;;;5020973;28;20081;-71
2022/11/12 13:16:58;;;;;;;76.22;44.40;;;;;;;;;;5022393;28;20879;-72
2022/11/12 13:19:35;;;;;;;81.13;43.97;;;;;;;;;;5021449;28;20135;-72
2022/11/12 13:22:16;;;;;;;87.97;46.10;;;;;;;;;;5027895;28;20119;-71
2022/11/12 13:25:01;;;;;;;88.13;43.83;;;;;;;;;;5031226;28;20091;-71
2022/11/12 13:27:40;;;;;;;71.50;42.85;;;;;;;;;;5042426;28;20046;-71
2022/11/12 13:30:21;;;;;;;66.97;42.20;;;;;;;;;;5036386;28;20518;-71
2022/11/12 13:32:47;;;;;;;61.70;39.92;;;;;;;;;;5021590;28;20056;-72
2022/11/12 13:35:16;;;;;;;57.95;39.08;;;;;;;;;;5020099;28;20053;-71
2022/11/12 13:37:52;;;;;;;58.85;39.25;;;;;;;;;;5020031;28;20129;-71
2022/11/12 13:40:37;;;;;;;59.35;40.03;;;;;;;;;;5007527;28;20049;-71
2022/11/12 13:43:06;;;;;;;57.58;37.95;;;;;;;;;;5018399;28;20044;-71
2022/11/12 13:45:32;;;;;;;62.50;40.83;;;;;;;;;;5005171;28;20604;-71
2022/11/12 13:47:58;;;;;;;60.90;40.45;;;;;;;;;;5018922;28;20045;-72
2022/11/12 13:50:25;;;;;;;57.45;38.30;;;;;;;;;;4990404;28;20069;-71
2022/11/12 13:52:51;;;;;;;57.95;39.05;;;;;;;;;;4983375;28;20462;-71
2022/11/12 13:55:20;;;;;;;56.70;37.67;;;;;;;;;;5019459;28;20517;-71
2022/11/12 13:57:49;;;;;;;54.95;37.88;;;;;;;;;;5020586;28;20792;-72
2022/11/12 14:00:34;;;;;;;58.50;38.78;;;;;;;;;;5015254;28;20049;-72
2022/11/12 14:03:02;;;;;;;51.90;35.70;;;;;;;;;;5018555;28;20108;-73
2022/11/12 14:05:30;;;;;;;60.58;38.13;;;;;;;;;;4978995;28;20503;-71
2022/11/12 14:08:25;;;;;;;57.85;38.58;;;;;;;;;;5011119;28;20071;-72
2022/11/12 14:11:14;;;;;;;55.00;36.80;;;;;;;;;;5024973;28;20049;-71
2022/11/12 14:13:40;;;;;;;56.70;35.67;;;;;;;;;;5006282;28;20071;-72
2022/11/12 14:16:25;;;;;;;51.65;37.53;;;;;;;;;;5002029;28;20037;-72
2022/11/12 14:18:51;;;;;;;50.92;36.70;;;;;;;;;;5016673;28;20045;-72
2022/11/12 14:21:17;;;;;;;61.00;38.85;;;;;;;;;;5017085;28;20037;-74
2022/11/12 14:23:48;;;;;;;59.60;38.78;;;;;;;;;;5019849;28;20049;-71
2022/11/12 14:26:32;;;;;;;54.85;38.05;;;;;;;;;;5020801;28;20045;-71
2022/11/12 14:28:58;;;;;;;59.97;40.00;;;;;;;;;;5011544;28;20584;-72
2022/11/12 14:31:25;;;;;;;57.45;38.45;;;;;;;;;;5011461;28;20768;-72
2022/11/12 14:33:51;;;;;;;53.90;37.45;;;;;;;;;;4998378;28;20134;-72
2022/11/12 14:36:18;;;;;;;58.05;39.05;;;;;;;;;;5012004;28;20224;-73
2022/11/12 14:38:47;;;;;;;62.70;39.08;;;;;;;;;;5012806;28;20053;-73
2022/11/12 14:41:22;;;;;;;53.92;37.63;;;;;;;;;;5015828;28;20171;-73
2022/11/12 14:43:53;;;;;;;56.58;39.03;;;;;;;;;;4997512;28;20048;-73
2022/11/12 14:46:22;;;;;;;59.97;38.83;;;;;;;;;;5016939;28;20400;-73
2022/11/12 14:48:50;;;;;;;55.65;38.58;;;;;;;;;;5019370;28;20515;-73
2022/11/12 14:51:17;;;;;;;60.55;39.83;;;;;;;;;;5000836;28;20053;-73
2022/11/12 14:53:45;;;;;;;60.53;39.35;;;;;;;;;;4997888;28;20044;-73
2022/11/12 14:56:21;;;;;;;58.15;40.60;;;;;;;;;;5018537;28;20128;-73
2022/11/12 14:58:47;;;;;;;53.97;38.53;;;;;;;;;;5021106;28;20045;-73